CSN0117 YSCB-YMML
Flight info
| Callsign | CSN0117 |
|---|---|
| Flight time | 1h 0m |
| Altitude | 14000 |
| Route | CB Q215 TANTA Q29 ML |
| Aircraft | A320/M-SDE2E3FGHIJ1RWXY/LB1 |
Departure
| Time | 2026-04-30 08:20 |
|---|---|
| Airport | Canberra Airport (YSCB) |
Arrival
| Time | 2026-04-30 09:20 |
|---|---|
| Airport | Melbourne Airport (YMML) |
| Time | Latitude | Longitude | Altitude | Speed | Heading |
|---|---|---|---|---|---|
| 2026-04-30 08:05 | -35.30713 | 149.19152 | 1884 ft | 0 kts | 214° |
| 2026-04-30 08:12 | -35.30709 | 149.19154 | 1885 ft | 2 kts | 214° |
| 2026-04-30 08:12 | -35.30694 | 149.19167 | 1879 ft | 3 kts | 214° |
| 2026-04-30 08:13 | -35.30677 | 149.19181 | 1882 ft | 3 kts | 213° |
| 2026-04-30 08:13 | -35.30658 | 149.19190 | 1880 ft | 3 kts | 143° |
| 2026-04-30 08:13 | -35.30651 | 149.19182 | 1881 ft | 0 kts | 132° |
| 2026-04-30 08:15 | -35.30715 | 149.19237 | 1883 ft | 23 kts | 173° |
| 2026-04-30 08:16 | -35.30883 | 149.19240 | 1878 ft | 27 kts | 179° |
| 2026-04-30 08:16 | -35.31086 | 149.19239 | 1882 ft | 31 kts | 180° |
| 2026-04-30 08:16 | -35.31297 | 149.19239 | 1877 ft | 30 kts | 180° |
| 2026-04-30 08:16 | -35.31519 | 149.19239 | 1876 ft | 33 kts | 179° |
| 2026-04-30 08:17 | -35.31736 | 149.19239 | 1876 ft | 30 kts | 180° |
| 2026-04-30 08:17 | -35.31886 | 149.19239 | 1879 ft | 0 kts | 180° |
| 2026-04-30 08:17 | -35.31903 | 149.19240 | 1880 ft | 8 kts | 178° |
| 2026-04-30 08:17 | -35.31981 | 149.19278 | 1881 ft | 16 kts | 135° |
| 2026-04-30 08:18 | -35.32002 | 149.19319 | 1883 ft | 0 kts | 109° |
| 2026-04-30 08:19 | -35.32004 | 149.19379 | 1882 ft | 13 kts | 88° |
| 2026-04-30 08:19 | -35.31931 | 149.19444 | 1878 ft | 16 kts | 4° |
| 2026-04-30 08:19 | -35.31802 | 149.19444 | 1879 ft | 23 kts | 0° |
| 2026-04-30 08:19 | -35.31390 | 149.19445 | 1878 ft | 112 kts | 359° |
| 2026-04-30 08:20 | -35.30315 | 149.19439 | 2056 ft | 182 kts | 359° |
| 2026-04-30 08:20 | -35.28974 | 149.19438 | 2777 ft | 197 kts | 359° |
| 2026-04-30 08:20 | -35.27737 | 149.19520 | 3406 ft | 159 kts | 6° |
| 2026-04-30 08:20 | -35.26744 | 149.19647 | 4042 ft | 130 kts | 5° |
| 2026-04-30 08:21 | -35.25873 | 149.19753 | 4696 ft | 124 kts | 5° |
| 2026-04-30 08:21 | -35.25031 | 149.19857 | 5356 ft | 123 kts | 5° |
| 2026-04-30 08:21 | -35.24176 | 149.19962 | 5998 ft | 124 kts | 5° |
| 2026-04-30 08:21 | -35.23278 | 149.20073 | 6432 ft | 145 kts | 5° |
| 2026-04-30 08:22 | -35.22262 | 149.20198 | 7185 ft | 145 kts | 5° |
| 2026-04-30 08:22 | -35.21222 | 149.20333 | 8291 ft | 163 kts | 5° |
| 2026-04-30 08:22 | -35.19873 | 149.20508 | 8780 ft | 212 kts | 5° |
| 2026-04-30 08:22 | -35.18418 | 149.20675 | 9865 ft | 208 kts | 5° |
| 2026-04-30 08:23 | -35.16974 | 149.20838 | 10880 ft | 209 kts | 5° |
| 2026-04-30 08:23 | -35.15531 | 149.20999 | 11813 ft | 212 kts | 5° |
| 2026-04-30 08:23 | -35.14029 | 149.21166 | 12753 ft | 216 kts | 5° |
| 2026-04-30 08:23 | -35.12542 | 149.21331 | 13592 ft | 221 kts | 5° |
| 2026-04-30 08:24 | -35.11003 | 149.21502 | 13907 ft | 222 kts | 5° |
| 2026-04-30 08:24 | -35.09463 | 149.21647 | 13998 ft | 222 kts | 358° |
| 2026-04-30 08:24 | -35.07983 | 149.21198 | 14017 ft | 220 kts | 329° |
| 2026-04-30 08:24 | -35.06868 | 149.19949 | 14013 ft | 220 kts | 300° |
| 2026-04-30 08:25 | -35.06388 | 149.18201 | 14012 ft | 219 kts | 272° |
| 2026-04-30 08:25 | -35.06653 | 149.16384 | 14012 ft | 220 kts | 244° |
| 2026-04-30 08:25 | -35.07539 | 149.14872 | 14011 ft | 221 kts | 230° |
| 2026-04-30 08:25 | -35.08524 | 149.13434 | 14012 ft | 221 kts | 231° |
| 2026-04-30 08:26 | -35.09500 | 149.11991 | 14015 ft | 221 kts | 231° |
| 2026-04-30 08:26 | -35.10464 | 149.10562 | 14014 ft | 221 kts | 231° |
| 2026-04-30 08:26 | -35.11441 | 149.09115 | 14016 ft | 221 kts | 231° |
| 2026-04-30 08:26 | -35.12416 | 149.07667 | 14014 ft | 221 kts | 231° |
| 2026-04-30 08:27 | -35.13390 | 149.06218 | 14014 ft | 221 kts | 231° |
| 2026-04-30 08:27 | -35.14363 | 149.04770 | 14018 ft | 220 kts | 231° |
| 2026-04-30 08:27 | -35.15337 | 149.03322 | 14014 ft | 220 kts | 231° |
| 2026-04-30 08:27 | -35.16311 | 149.01876 | 14016 ft | 220 kts | 231° |
| 2026-04-30 08:28 | -35.17281 | 149.00439 | 14343 ft | 219 kts | 231° |
| 2026-04-30 08:28 | -35.18245 | 148.99009 | 15186 ft | 222 kts | 231° |
| 2026-04-30 08:28 | -35.19233 | 148.97541 | 16081 ft | 225 kts | 230° |
| 2026-04-30 08:28 | -35.20331 | 148.96156 | 16949 ft | 229 kts | 221° |
| 2026-04-30 08:29 | -35.21592 | 148.94948 | 17804 ft | 232 kts | 214° |
| 2026-04-30 08:29 | -35.22993 | 148.93947 | 18635 ft | 235 kts | 206° |
| 2026-04-30 08:29 | -35.24516 | 148.93174 | 19447 ft | 239 kts | 198° |
| 2026-04-30 08:29 | -35.26132 | 148.92652 | 20256 ft | 242 kts | 191° |
| 2026-04-30 08:30 | -35.27817 | 148.92357 | 21033 ft | 246 kts | 188° |
| 2026-04-30 08:30 | -35.29533 | 148.92078 | 21729 ft | 253 kts | 188° |
| 2026-04-30 08:30 | -35.31260 | 148.91796 | 21946 ft | 254 kts | 188° |
| 2026-04-30 08:30 | -35.33013 | 148.91508 | 22001 ft | 254 kts | 188° |
| 2026-04-30 08:31 | -35.34766 | 148.91220 | 22008 ft | 254 kts | 188° |
| 2026-04-30 08:31 | -35.36522 | 148.90930 | 22008 ft | 255 kts | 188° |
| 2026-04-30 08:31 | -35.38278 | 148.90638 | 22009 ft | 255 kts | 188° |
| 2026-04-30 08:31 | -35.40042 | 148.90345 | 22009 ft | 256 kts | 188° |
| 2026-04-30 08:32 | -35.41808 | 148.90054 | 22009 ft | 256 kts | 188° |
| 2026-04-30 08:32 | -35.43550 | 148.89768 | 22009 ft | 256 kts | 188° |
| 2026-04-30 08:32 | -35.45312 | 148.89479 | 22009 ft | 256 kts | 188° |
| 2026-04-30 08:32 | -35.47073 | 148.89188 | 22009 ft | 255 kts | 188° |
| 2026-04-30 08:33 | -35.48831 | 148.88896 | 22009 ft | 255 kts | 188° |
| 2026-04-30 08:33 | -35.50594 | 148.88603 | 22009 ft | 256 kts | 188° |
| 2026-04-30 08:33 | -35.52363 | 148.88309 | 22009 ft | 257 kts | 188° |
| 2026-04-30 08:33 | -35.54128 | 148.88016 | 22009 ft | 256 kts | 188° |
| 2026-04-30 08:34 | -35.55896 | 148.87722 | 22009 ft | 257 kts | 188° |
| 2026-04-30 08:34 | -35.57663 | 148.87427 | 22009 ft | 257 kts | 188° |
| 2026-04-30 08:34 | -35.59410 | 148.87135 | 22009 ft | 257 kts | 188° |
| 2026-04-30 08:34 | -35.61178 | 148.86840 | 22009 ft | 256 kts | 188° |
| 2026-04-30 08:35 | -35.62947 | 148.86545 | 22009 ft | 256 kts | 188° |
| 2026-04-30 08:35 | -35.64709 | 148.86222 | 22008 ft | 256 kts | 192° |
| 2026-04-30 08:35 | -35.66425 | 148.85651 | 22009 ft | 256 kts | 200° |
| 2026-04-30 08:35 | -35.68061 | 148.84806 | 22009 ft | 255 kts | 207° |
| 2026-04-30 08:36 | -35.69595 | 148.83712 | 22009 ft | 255 kts | 214° |
| 2026-04-30 08:36 | -35.70999 | 148.82385 | 22009 ft | 255 kts | 222° |
| 2026-04-30 08:36 | -35.72250 | 148.80843 | 22008 ft | 255 kts | 230° |
| 2026-04-30 08:36 | -35.73315 | 148.79131 | 22009 ft | 255 kts | 236° |
| 2026-04-30 08:37 | -35.74331 | 148.77337 | 22009 ft | 256 kts | 235° |
| 2026-04-30 08:37 | -35.75354 | 148.75541 | 22009 ft | 256 kts | 235° |
| 2026-04-30 08:37 | -35.76372 | 148.73753 | 22010 ft | 255 kts | 235° |
| 2026-04-30 08:37 | -35.77391 | 148.71966 | 22009 ft | 254 kts | 235° |
| 2026-04-30 08:38 | -35.78409 | 148.70183 | 22009 ft | 255 kts | 235° |
| 2026-04-30 08:38 | -35.79426 | 148.68400 | 22009 ft | 254 kts | 235° |
| 2026-04-30 08:38 | -35.80454 | 148.66592 | 22012 ft | 269 kts | 235° |
| 2026-04-30 08:38 | -35.81588 | 148.64596 | 22005 ft | 299 kts | 235° |
| 2026-04-30 08:39 | -35.82821 | 148.62423 | 22004 ft | 329 kts | 235° |
| 2026-04-30 08:39 | -35.84197 | 148.60006 | 22004 ft | 359 kts | 235° |
| 2026-04-30 08:39 | -35.85690 | 148.57380 | 22005 ft | 388 kts | 235° |
| 2026-04-30 08:39 | -35.87289 | 148.54563 | 22006 ft | 414 kts | 235° |
| 2026-04-30 08:40 | -35.88985 | 148.51567 | 22008 ft | 436 kts | 235° |
| 2026-04-30 08:40 | -35.90751 | 148.48437 | 22007 ft | 453 kts | 235° |
| 2026-04-30 08:40 | -35.92577 | 148.45194 | 22008 ft | 467 kts | 235° |
| 2026-04-30 08:40 | -35.94451 | 148.41860 | 22008 ft | 478 kts | 235° |
| 2026-04-30 08:41 | -35.96334 | 148.38512 | 22009 ft | 483 kts | 235° |
| 2026-04-30 08:41 | -35.98246 | 148.35112 | 22009 ft | 483 kts | 235° |
| 2026-04-30 08:41 | -36.00162 | 148.31697 | 22009 ft | 483 kts | 235° |
| 2026-04-30 08:41 | -36.02069 | 148.28296 | 22009 ft | 482 kts | 235° |
| 2026-04-30 08:42 | -36.03984 | 148.24882 | 22009 ft | 484 kts | 235° |
| 2026-04-30 08:42 | -36.05897 | 148.21461 | 22009 ft | 483 kts | 235° |
| 2026-04-30 08:42 | -36.07803 | 148.18049 | 22010 ft | 482 kts | 236° |
| 2026-04-30 08:42 | -36.09699 | 148.14652 | 22009 ft | 480 kts | 236° |
| 2026-04-30 08:43 | -36.11593 | 148.11257 | 22009 ft | 479 kts | 236° |
| 2026-04-30 08:43 | -36.13458 | 148.07910 | 22009 ft | 478 kts | 235° |
| 2026-04-30 08:43 | -36.15343 | 148.04535 | 22009 ft | 477 kts | 235° |
| 2026-04-30 08:43 | -36.17233 | 148.01157 | 22009 ft | 477 kts | 235° |
| 2026-04-30 08:44 | -36.19123 | 147.97778 | 22009 ft | 480 kts | 235° |
| 2026-04-30 08:44 | -36.21016 | 147.94388 | 22009 ft | 477 kts | 235° |
| 2026-04-30 08:44 | -36.22902 | 147.91006 | 22009 ft | 477 kts | 235° |
| 2026-04-30 08:44 | -36.24787 | 147.87620 | 22009 ft | 478 kts | 236° |
| 2026-04-30 08:45 | -36.26674 | 147.84229 | 22009 ft | 478 kts | 236° |
| 2026-04-30 08:45 | -36.28559 | 147.80837 | 22009 ft | 478 kts | 236° |
| 2026-04-30 08:45 | -36.30442 | 147.77440 | 22009 ft | 478 kts | 236° |
| 2026-04-30 08:45 | -36.32302 | 147.74077 | 22009 ft | 481 kts | 236° |
| 2026-04-30 08:46 | -36.34192 | 147.70663 | 22010 ft | 480 kts | 236° |
| 2026-04-30 08:46 | -36.36082 | 147.67251 | 22009 ft | 479 kts | 236° |
| 2026-04-30 08:46 | -36.37968 | 147.63835 | 22009 ft | 480 kts | 236° |
| 2026-04-30 08:46 | -36.39857 | 147.60404 | 22009 ft | 481 kts | 236° |
| 2026-04-30 08:47 | -36.41732 | 147.56981 | 22009 ft | 479 kts | 236° |
| 2026-04-30 08:47 | -36.43606 | 147.53562 | 22009 ft | 478 kts | 236° |
| 2026-04-30 08:47 | -36.45481 | 147.50142 | 22009 ft | 479 kts | 236° |
| 2026-04-30 08:47 | -36.47329 | 147.46775 | 22009 ft | 478 kts | 236° |
| 2026-04-30 08:48 | -36.49204 | 147.43363 | 22009 ft | 477 kts | 236° |
| 2026-04-30 08:48 | -36.51072 | 147.39957 | 22009 ft | 477 kts | 236° |
| 2026-04-30 08:48 | -36.52937 | 147.36544 | 22009 ft | 477 kts | 236° |
| 2026-04-30 08:48 | -36.54799 | 147.33131 | 22009 ft | 478 kts | 236° |
| 2026-04-30 08:49 | -36.56666 | 147.29704 | 22009 ft | 479 kts | 236° |
| 2026-04-30 08:49 | -36.58537 | 147.26274 | 22009 ft | 480 kts | 236° |
| 2026-04-30 08:49 | -36.60414 | 147.22833 | 22009 ft | 481 kts | 236° |
| 2026-04-30 08:49 | -36.62291 | 147.19395 | 22009 ft | 480 kts | 236° |
| 2026-04-30 08:50 | -36.64165 | 147.15958 | 22009 ft | 480 kts | 236° |
| 2026-04-30 08:50 | -36.66006 | 147.12574 | 22009 ft | 477 kts | 236° |
| 2026-04-30 08:50 | -36.67863 | 147.09148 | 22009 ft | 479 kts | 236° |
| 2026-04-30 08:50 | -36.69733 | 147.05695 | 22009 ft | 480 kts | 236° |
| 2026-04-30 08:51 | -36.71599 | 147.02250 | 22010 ft | 479 kts | 236° |
| 2026-04-30 08:51 | -36.73459 | 146.98813 | 22009 ft | 477 kts | 236° |
| 2026-04-30 08:51 | -36.75313 | 146.95381 | 22010 ft | 478 kts | 236° |
| 2026-04-30 08:51 | -36.77174 | 146.91933 | 22008 ft | 479 kts | 236° |
| 2026-04-30 08:52 | -36.79029 | 146.88489 | 22009 ft | 478 kts | 236° |
| 2026-04-30 08:52 | -36.80886 | 146.85040 | 22009 ft | 478 kts | 236° |
| 2026-04-30 08:52 | -36.82742 | 146.81594 | 22009 ft | 480 kts | 236° |
| 2026-04-30 08:52 | -36.84607 | 146.78123 | 22009 ft | 481 kts | 236° |
| 2026-04-30 08:53 | -36.86440 | 146.74710 | 22010 ft | 479 kts | 236° |
| 2026-04-30 08:53 | -36.88298 | 146.71249 | 22009 ft | 480 kts | 236° |
| 2026-04-30 08:53 | -36.90150 | 146.67795 | 22009 ft | 478 kts | 236° |
| 2026-04-30 08:53 | -36.92003 | 146.64333 | 22009 ft | 480 kts | 236° |
| 2026-04-30 08:54 | -36.93860 | 146.60863 | 22009 ft | 480 kts | 236° |
| 2026-04-30 08:54 | -36.95710 | 146.57401 | 22009 ft | 478 kts | 236° |
| 2026-04-30 08:54 | -36.97560 | 146.53937 | 22009 ft | 479 kts | 236° |
| 2026-04-30 08:54 | -36.99405 | 146.50484 | 22009 ft | 479 kts | 236° |
| 2026-04-30 08:55 | -37.01265 | 146.47000 | 21964 ft | 478 kts | 236° |
| 2026-04-30 08:55 | -37.03078 | 146.43598 | 21835 ft | 460 kts | 236° |
| 2026-04-30 08:55 | -37.04773 | 146.40407 | 21721 ft | 433 kts | 237° |
| 2026-04-30 08:55 | -37.06389 | 146.37354 | 21599 ft | 410 kts | 237° |
| 2026-04-30 08:56 | -37.07924 | 146.34454 | 21475 ft | 390 kts | 237° |
| 2026-04-30 08:56 | -37.09389 | 146.31689 | 21364 ft | 372 kts | 237° |
| 2026-04-30 08:56 | -37.10794 | 146.29036 | 20973 ft | 362 kts | 237° |
| 2026-04-30 08:56 | -37.12198 | 146.26383 | 20050 ft | 369 kts | 237° |
| 2026-04-30 08:57 | -37.13631 | 146.23675 | 19072 ft | 376 kts | 237° |
| 2026-04-30 08:57 | -37.15091 | 146.20916 | 18057 ft | 383 kts | 237° |
| 2026-04-30 08:57 | -37.16575 | 146.18106 | 16997 ft | 389 kts | 237° |
| 2026-04-30 08:57 | -37.18079 | 146.15254 | 15888 ft | 395 kts | 237° |
| 2026-04-30 08:58 | -37.19600 | 146.12361 | 14737 ft | 400 kts | 237° |
| 2026-04-30 08:58 | -37.21120 | 146.09470 | 13706 ft | 402 kts | 237° |
| 2026-04-30 08:58 | -37.22634 | 146.06594 | 13272 ft | 386 kts | 237° |
| 2026-04-30 08:58 | -37.24072 | 146.03860 | 13091 ft | 365 kts | 237° |
| 2026-04-30 08:59 | -37.25428 | 146.01279 | 12991 ft | 344 kts | 237° |
| 2026-04-30 08:59 | -37.26702 | 145.98855 | 13008 ft | 322 kts | 237° |
| 2026-04-30 08:59 | -37.27898 | 145.96577 | 13011 ft | 304 kts | 237° |
| 2026-04-30 08:59 | -37.29026 | 145.94424 | 13011 ft | 287 kts | 237° |
| 2026-04-30 09:00 | -37.30095 | 145.92384 | 13008 ft | 272 kts | 237° |
| 2026-04-30 09:00 | -37.31111 | 145.90444 | 13011 ft | 259 kts | 237° |
| 2026-04-30 09:00 | -37.32077 | 145.88605 | 13011 ft | 246 kts | 237° |
| 2026-04-30 09:00 | -37.32997 | 145.86856 | 13012 ft | 233 kts | 237° |
| 2026-04-30 09:01 | -37.33866 | 145.85204 | 13011 ft | 220 kts | 237° |
| 2026-04-30 09:01 | -37.34676 | 145.83663 | 13009 ft | 213 kts | 237° |
| 2026-04-30 09:01 | -37.35496 | 145.82105 | 13010 ft | 214 kts | 237° |
| 2026-04-30 09:01 | -37.36317 | 145.80540 | 13008 ft | 214 kts | 237° |
| 2026-04-30 09:02 | -37.37952 | 145.77414 | 13010 ft | 213 kts | 237° |
| 2026-04-30 09:02 | -37.38763 | 145.75861 | 13007 ft | 212 kts | 237° |
| 2026-04-30 09:02 | -37.39577 | 145.74307 | 13010 ft | 213 kts | 237° |
| 2026-04-30 09:03 | -37.40391 | 145.72754 | 13010 ft | 212 kts | 237° |
| 2026-04-30 09:03 | -37.41201 | 145.71202 | 13010 ft | 212 kts | 237° |
| 2026-04-30 09:03 | -37.42008 | 145.69651 | 13010 ft | 212 kts | 237° |
| 2026-04-30 09:03 | -37.42815 | 145.68101 | 13010 ft | 212 kts | 237° |
| 2026-04-30 09:04 | -37.43626 | 145.66547 | 13008 ft | 212 kts | 237° |
| 2026-04-30 09:04 | -37.44437 | 145.64992 | 13010 ft | 213 kts | 237° |
| 2026-04-30 09:04 | -37.45254 | 145.63436 | 13007 ft | 213 kts | 236° |
| 2026-04-30 09:04 | -37.46113 | 145.61917 | 13010 ft | 213 kts | 234° |
| 2026-04-30 09:05 | -37.46997 | 145.60414 | 13010 ft | 213 kts | 233° |
| 2026-04-30 09:05 | -37.47869 | 145.58940 | 13010 ft | 213 kts | 233° |
| 2026-04-30 09:05 | -37.48750 | 145.57443 | 12986 ft | 213 kts | 234° |
| 2026-04-30 09:05 | -37.49630 | 145.55944 | 12790 ft | 212 kts | 234° |
| 2026-04-30 09:06 | -37.50500 | 145.54453 | 12518 ft | 211 kts | 234° |
| 2026-04-30 09:06 | -37.51366 | 145.52965 | 12246 ft | 210 kts | 234° |
| 2026-04-30 09:06 | -37.52229 | 145.51481 | 11978 ft | 210 kts | 234° |
| 2026-04-30 09:06 | -37.53087 | 145.50004 | 11718 ft | 208 kts | 234° |
| 2026-04-30 09:07 | -37.53938 | 145.48537 | 11457 ft | 207 kts | 234° |
| 2026-04-30 09:07 | -37.54785 | 145.47075 | 11191 ft | 206 kts | 234° |
| 2026-04-30 09:07 | -37.55627 | 145.45622 | 10932 ft | 205 kts | 234° |
| 2026-04-30 09:07 | -37.56468 | 145.44176 | 10675 ft | 204 kts | 234° |
| 2026-04-30 09:08 | -37.57302 | 145.42737 | 10413 ft | 203 kts | 234° |
| 2026-04-30 09:08 | -37.58123 | 145.41321 | 10152 ft | 202 kts | 234° |
| 2026-04-30 09:08 | -37.58948 | 145.39897 | 9888 ft | 201 kts | 234° |
| 2026-04-30 09:08 | -37.59773 | 145.38474 | 9621 ft | 200 kts | 234° |
| 2026-04-30 09:09 | -37.60591 | 145.37058 | 9373 ft | 199 kts | 234° |
| 2026-04-30 09:09 | -37.61405 | 145.35646 | 9109 ft | 199 kts | 234° |
| 2026-04-30 09:09 | -37.62222 | 145.34232 | 8759 ft | 203 kts | 234° |
| 2026-04-30 09:09 | -37.63075 | 145.32756 | 8240 ft | 214 kts | 234° |
| 2026-04-30 09:10 | -37.63667 | 145.31730 | 7864 ft | 223 kts | 234° |
| 2026-04-30 09:10 | -37.64928 | 145.29541 | 7034 ft | 238 kts | 234° |
| 2026-04-30 09:10 | -37.65925 | 145.27812 | 6396 ft | 248 kts | 234° |
| 2026-04-30 09:10 | -37.66599 | 145.26643 | 6071 ft | 249 kts | 234° |
| 2026-04-30 09:11 | -37.67958 | 145.24289 | 5714 ft | 248 kts | 234° |
| 2026-04-30 09:11 | -37.68631 | 145.23122 | 5716 ft | 249 kts | 234° |
| 2026-04-30 09:11 | -37.69650 | 145.21356 | 5719 ft | 249 kts | 234° |
| 2026-04-30 09:11 | -37.70667 | 145.19591 | 5717 ft | 249 kts | 234° |
| 2026-04-30 09:12 | -37.71679 | 145.17832 | 5594 ft | 243 kts | 234° |
| 2026-04-30 09:12 | -37.72941 | 145.15632 | 5414 ft | 225 kts | 234° |
| 2026-04-30 09:12 | -37.73840 | 145.14068 | 5278 ft | 215 kts | 234° |
| 2026-04-30 09:12 | -37.74442 | 145.13021 | 4925 ft | 221 kts | 234° |
| 2026-04-30 09:13 | -37.75367 | 145.11405 | 4304 ft | 233 kts | 234° |
| 2026-04-30 09:13 | -37.76320 | 145.09741 | 3736 ft | 240 kts | 234° |
| 2026-04-30 09:13 | -37.77296 | 145.08033 | 3302 ft | 239 kts | 234° |
| 2026-04-30 09:13 | -37.78268 | 145.06339 | 2925 ft | 236 kts | 234° |
| 2026-04-30 09:14 | -37.79203 | 145.04709 | 2791 ft | 223 kts | 234° |
| 2026-04-30 09:14 | -37.80089 | 145.03164 | 2675 ft | 211 kts | 234° |
| 2026-04-30 09:14 | -37.80910 | 145.01676 | 2551 ft | 201 kts | 240° |
| 2026-04-30 09:14 | -37.81473 | 145.00114 | 2345 ft | 191 kts | 252° |
| 2026-04-30 09:15 | -37.81785 | 144.98461 | 2217 ft | 194 kts | 258° |
| 2026-04-30 09:15 | -37.82073 | 144.96789 | 2218 ft | 195 kts | 258° |
| 2026-04-30 09:15 | -37.82366 | 144.95119 | 2219 ft | 195 kts | 257° |
| 2026-04-30 09:15 | -37.82639 | 144.93465 | 2219 ft | 195 kts | 260° |
| 2026-04-30 09:16 | -37.82857 | 144.91778 | 2218 ft | 195 kts | 261° |
| 2026-04-30 09:16 | -37.83062 | 144.90084 | 2218 ft | 195 kts | 261° |
| 2026-04-30 09:16 | -37.83219 | 144.88388 | 2212 ft | 194 kts | 273° |
| 2026-04-30 09:16 | -37.82652 | 144.86896 | 2211 ft | 194 kts | 321° |
| 2026-04-30 09:17 | -37.81405 | 144.86251 | 2232 ft | 196 kts | 347° |
| 2026-04-30 09:17 | -37.80058 | 144.85981 | 2223 ft | 196 kts | 353° |
| 2026-04-30 09:17 | -37.78699 | 144.85785 | 2218 ft | 196 kts | 353° |
| 2026-04-30 09:17 | -37.77344 | 144.85590 | 2242 ft | 191 kts | 353° |
| 2026-04-30 09:18 | -37.76084 | 144.85397 | 2228 ft | 180 kts | 352° |
| 2026-04-30 09:18 | -37.74846 | 144.85196 | 2123 ft | 179 kts | 352° |
| 2026-04-30 09:18 | -37.73611 | 144.84978 | 1933 ft | 179 kts | 351° |
| 2026-04-30 09:18 | -37.72400 | 144.84751 | 1741 ft | 178 kts | 352° |
| 2026-04-30 09:19 | -37.71174 | 144.84544 | 1539 ft | 178 kts | 352° |
| 2026-04-30 09:19 | -37.69956 | 144.84333 | 1097 ft | 176 kts | 351° |
| 2026-04-30 09:19 | -37.68755 | 144.84127 | 483 ft | 171 kts | 352° |
| 2026-04-30 09:19 | -37.67634 | 144.83913 | 420 ft | 146 kts | 352° |
| 2026-04-30 09:20 | -37.66774 | 144.83763 | 402 ft | 92 kts | 351° |
| 2026-04-30 09:20 | -37.66490 | 144.83738 | 408 ft | 0 kts | 63° |
| 2026-04-30 09:20 | -37.66487 | 144.83770 | 408 ft | 12 kts | 109° |
| 2026-04-30 09:20 | -37.66505 | 144.83835 | 407 ft | 0 kts | 93° |
| 2026-04-30 09:21 | -37.66505 | 144.83842 | 407 ft | 2 kts | 93° |
| 2026-04-30 09:21 | -37.66505 | 144.83843 | 407 ft | 0 kts | 92° |
| 2026-04-30 09:21 | -37.66505 | 144.83844 | 407 ft | 0 kts | 92° |
| 2026-04-30 09:22 | -37.66505 | 144.83851 | 407 ft | 0 kts | 92° |
| 2026-04-30 09:22 | -37.66505 | 144.83852 | 407 ft | 0 kts | 92° |
| 2026-04-30 09:22 | -37.66505 | 144.83853 | 407 ft | 0 kts | 92° |
| 2026-04-30 09:23 | -37.66505 | 144.83854 | 407 ft | 0 kts | 92° |
| 2026-04-30 09:23 | -37.66506 | 144.83877 | 407 ft | 10 kts | 91° |
| 2026-04-30 09:23 | -37.66517 | 144.84019 | 408 ft | 13 kts | 94° |
| 2026-04-30 09:23 | -37.66527 | 144.84081 | 409 ft | 7 kts | 118° |
| 2026-04-30 09:24 | -37.66593 | 144.84152 | 408 ft | 21 kts | 166° |
| 2026-04-30 09:24 | -37.66688 | 144.84236 | 404 ft | 15 kts | 85° |
| 2026-04-30 09:24 | -37.66677 | 144.84380 | 408 ft | 19 kts | 82° |
| 2026-04-30 09:24 | -37.66666 | 144.84511 | 410 ft | 8 kts | 94° |
| 2026-04-30 09:25 | -37.66741 | 144.84539 | 408 ft | 13 kts | 173° |
| 2026-04-30 09:25 | -37.66756 | 144.84540 | 408 ft | 0 kts | 172° |